createdAt,value
2018-02-07T00:00:17.006Z,1003.54
2018-02-07T00:00:57.380Z,1003.53
2018-02-07T00:01:37.792Z,1003.54
2018-02-07T00:02:18.207Z,1003.48
2018-02-07T00:02:58.534Z,1003.51
2018-02-07T00:03:38.973Z,1003.49
2018-02-07T00:04:19.412Z,1003.49
2018-02-07T00:04:59.786Z,1003.52
2018-02-07T00:05:40.125Z,1003.49
2018-02-07T00:06:20.483Z,1003.53
2018-02-07T00:07:00.889Z,1003.49
2018-02-07T00:07:41.390Z,1003.48
2018-02-07T00:08:21.793Z,1003.49
2018-02-07T00:09:02.135Z,1003.49
2018-02-07T00:09:42.591Z,1003.48
2018-02-07T00:10:22.979Z,1003.53
2018-02-07T00:11:03.332Z,1003.52
2018-02-07T00:11:43.733Z,1003.53
2018-02-07T00:12:24.111Z,1003.44
2018-02-07T00:13:04.543Z,1003.5
2018-02-07T00:13:44.902Z,1003.48
2018-02-07T00:14:25.318Z,1003.47
2018-02-07T00:15:05.696Z,1003.43
2018-02-07T00:15:46.086Z,1003.41
2018-02-07T00:16:26.456Z,1003.43
2018-02-07T00:17:06.855Z,1003.45
2018-02-07T00:17:47.301Z,1003.44
2018-02-07T00:18:27.826Z,1003.48
2018-02-07T00:19:08.105Z,1003.4
2018-02-07T00:19:48.538Z,1003.45
2018-02-07T00:20:28.899Z,1003.49
2018-02-07T00:21:09.278Z,1003.46
2018-02-07T00:21:49.737Z,1003.47
2018-02-07T00:22:30.135Z,1003.48
2018-02-07T00:23:10.515Z,1003.51
2018-02-07T00:23:50.878Z,1003.5
2018-02-07T00:24:31.259Z,1003.49
2018-02-07T00:25:11.694Z,1003.48
2018-02-07T00:25:52.061Z,1003.5
2018-02-07T00:26:32.432Z,1003.49
2018-02-07T00:27:12.806Z,1003.48
2018-02-07T00:27:53.223Z,1003.44
2018-02-07T00:28:33.629Z,1003.44
2018-02-07T00:29:13.947Z,1003.42
2018-02-07T00:29:54.417Z,1003.4
2018-02-07T00:30:34.749Z,1003.39
2018-02-07T00:31:15.168Z,1003.41
2018-02-07T00:31:55.589Z,1003.4
2018-02-07T00:32:35.989Z,1003.4
2018-02-07T00:33:16.370Z,1003.39
2018-02-07T00:33:56.745Z,1003.39
2018-02-07T00:34:37.083Z,1003.36
2018-02-07T00:35:17.502Z,1003.39
2018-02-07T00:35:57.901Z,1003.37
2018-02-07T00:36:38.307Z,1003.32
2018-02-07T00:37:18.684Z,1003.31
2018-02-07T00:37:59.093Z,1003.34
2018-02-07T00:38:39.519Z,1003.36
2018-02-07T00:39:19.921Z,1003.36
2018-02-07T00:40:00.330Z,1003.38
2018-02-07T00:40:40.671Z,1003.4
2018-02-07T00:41:21.104Z,1003.42
2018-02-07T00:42:01.403Z,1003.39
2018-02-07T00:42:41.803Z,1003.38
2018-02-07T00:43:22.231Z,1003.39
2018-02-07T00:44:02.629Z,1003.42
2018-02-07T00:44:43.017Z,1003.44
2018-02-07T00:45:23.323Z,1003.44
2018-02-07T00:46:03.764Z,1003.42
2018-02-07T00:46:44.178Z,1003.42
2018-02-07T00:47:24.591Z,1003.47
2018-02-07T00:48:05.020Z,1003.45
2018-02-07T00:48:45.388Z,1003.45
2018-02-07T00:49:25.728Z,1003.5
2018-02-07T00:50:06.211Z,1003.45
2018-02-07T00:50:46.561Z,1003.46
2018-02-07T00:51:27.013Z,1003.48
2018-02-07T00:52:07.362Z,1003.48
2018-02-07T00:52:47.813Z,1003.48
2018-02-07T00:53:28.233Z,1003.53
2018-02-07T00:54:08.547Z,1003.46
2018-02-07T00:54:48.987Z,1003.46
2018-02-07T00:55:29.326Z,1003.46
2018-02-07T00:56:09.745Z,1003.49
2018-02-07T00:56:50.175Z,1003.5
2018-02-07T00:57:30.530Z,1003.52
2018-02-07T00:58:10.996Z,1003.52
2018-02-07T00:58:51.356Z,1003.57
2018-02-07T00:59:31.728Z,1003.57
2018-02-07T01:00:12.127Z,1003.57
2018-02-07T01:00:52.500Z,1003.6
2018-02-07T01:01:32.871Z,1003.62
2018-02-07T01:02:13.320Z,1003.61
2018-02-07T01:02:53.662Z,1003.66
2018-02-07T01:03:34.063Z,1003.66
2018-02-07T01:04:14.449Z,1003.66
2018-02-07T01:04:54.884Z,1003.67
2018-02-07T01:05:35.285Z,1003.62
2018-02-07T01:06:15.663Z,1003.64
2018-02-07T01:06:56.093Z,1003.66
2018-02-07T01:07:36.468Z,1003.64
2018-02-07T01:08:16.858Z,1003.64
2018-02-07T01:08:57.228Z,1003.65
2018-02-07T01:09:37.580Z,1003.65
2018-02-07T01:10:17.984Z,1003.64
2018-02-07T01:10:58.458Z,1003.63
2018-02-07T01:11:38.857Z,1003.65
2018-02-07T01:12:19.277Z,1003.65
2018-02-07T01:12:59.627Z,1003.64
2018-02-07T01:13:40.050Z,1003.65
2018-02-07T01:14:20.450Z,1003.66
2018-02-07T01:15:00.879Z,1003.69
2018-02-07T01:15:41.208Z,1003.69
2018-02-07T01:16:21.645Z,1003.68
2018-02-07T01:17:02.027Z,1003.67
2018-02-07T01:17:42.367Z,1003.67
2018-02-07T01:18:22.814Z,1003.66
2018-02-07T01:19:03.200Z,1003.7
2018-02-07T01:19:43.660Z,1003.69
2018-02-07T01:20:23.994Z,1003.64
2018-02-07T01:21:04.436Z,1003.7
2018-02-07T01:21:44.800Z,1003.65
2018-02-07T01:22:25.244Z,1003.68
2018-02-07T01:23:05.626Z,1003.7
2018-02-07T01:23:45.964Z,1003.65
2018-02-07T01:24:26.378Z,1003.68
2018-02-07T01:25:06.742Z,1003.67
2018-02-07T01:25:47.177Z,1003.68
2018-02-07T01:26:27.528Z,1003.68
2018-02-07T01:27:07.930Z,1003.65
2018-02-07T01:27:48.408Z,1003.67
2018-02-07T01:28:28.781Z,1003.7
2018-02-07T01:29:09.117Z,1003.64
2018-02-07T01:29:49.549Z,1003.69
2018-02-07T01:30:29.942Z,1003.66
2018-02-07T01:31:10.339Z,1003.68
2018-02-07T01:31:50.773Z,1003.67
2018-02-07T01:32:31.118Z,1003.66
2018-02-07T01:33:11.481Z,1003.7
2018-02-07T01:33:51.928Z,1003.72
2018-02-07T01:34:32.348Z,1003.69
2018-02-07T01:35:12.718Z,1003.69
2018-02-07T01:35:53.117Z,1003.67
2018-02-07T01:36:33.492Z,1003.67
2018-02-07T01:37:13.875Z,1003.69
2018-02-07T01:37:54.233Z,1003.67
2018-02-07T01:38:34.709Z,1003.67
2018-02-07T01:39:15.075Z,1003.68
2018-02-07T01:39:55.500Z,1003.67
2018-02-07T01:40:35.894Z,1003.69
2018-02-07T01:41:16.355Z,1003.7
2018-02-07T01:41:56.761Z,1003.69
2018-02-07T01:42:37.148Z,1003.71
2018-02-07T01:43:17.609Z,1003.71
2018-02-07T01:43:58.005Z,1003.67
2018-02-07T01:44:38.384Z,1003.72
2018-02-07T01:45:18.757Z,1003.7
2018-02-07T01:45:59.160Z,1003.72
2018-02-07T01:46:39.531Z,1003.7
2018-02-07T01:47:19.988Z,1003.73
2018-02-07T01:48:00.344Z,1003.74
2018-02-07T01:48:40.690Z,1003.73
2018-02-07T01:49:21.139Z,1003.77
2018-02-07T01:50:01.507Z,1003.75
2018-02-07T01:50:41.896Z,1003.78
2018-02-07T01:51:22.351Z,1003.74
2018-02-07T01:52:02.697Z,1003.76
2018-02-07T01:52:43.120Z,1003.77
2018-02-07T01:53:23.602Z,1003.78
2018-02-07T01:54:03.890Z,1003.76
2018-02-07T01:54:44.326Z,1003.71
2018-02-07T01:55:24.726Z,1003.76
2018-02-07T01:56:05.089Z,1003.79
2018-02-07T01:56:45.546Z,1003.78
2018-02-07T01:57:25.920Z,1003.75
2018-02-07T01:58:06.272Z,1003.76
2018-02-07T01:58:46.653Z,1003.76
2018-02-07T01:59:27.171Z,1003.76
2018-02-07T02:00:07.548Z,1003.75
2018-02-07T02:00:47.950Z,1003.74
2018-02-07T02:01:28.340Z,1003.73
2018-02-07T02:02:08.764Z,1003.76
2018-02-07T02:02:49.125Z,1003.72
2018-02-07T02:03:29.538Z,1003.73
2018-02-07T02:04:09.988Z,1003.75
2018-02-07T02:04:50.368Z,1003.72
2018-02-07T02:05:30.799Z,1003.72
2018-02-07T02:06:11.217Z,1003.72
2018-02-07T02:06:51.583Z,1003.71
2018-02-07T02:07:31.983Z,1003.68
2018-02-07T02:08:12.378Z,1003.65
2018-02-07T02:08:52.748Z,1003.68
2018-02-07T02:09:33.215Z,1003.66
2018-02-07T02:10:13.564Z,1003.68
2018-02-07T02:10:53.997Z,1003.69
2018-02-07T02:11:34.367Z,1003.67
2018-02-07T02:12:14.798Z,1003.68
2018-02-07T02:12:55.161Z,1003.69
2018-02-07T02:13:35.594Z,1003.68
2018-02-07T02:14:15.950Z,1003.66
2018-02-07T02:14:56.359Z,1003.66
2018-02-07T02:15:36.776Z,1003.67
2018-02-07T02:16:17.222Z,1003.68
2018-02-07T02:16:57.574Z,1003.71
2018-02-07T02:17:37.952Z,1003.65
2018-02-07T02:18:18.441Z,1003.66
2018-02-07T02:18:58.891Z,1003.64
2018-02-07T02:19:39.265Z,1003.67
2018-02-07T02:20:19.601Z,1003.66
2018-02-07T02:20:59.974Z,1003.65
2018-02-07T02:21:40.356Z,1003.66
2018-02-07T02:22:20.774Z,1003.64
2018-02-07T02:23:01.164Z,1003.65
2018-02-07T02:23:41.544Z,1003.6
2018-02-07T02:24:22.041Z,1003.6
2018-02-07T02:25:02.331Z,1003.58
2018-02-07T02:25:42.816Z,1003.57
2018-02-07T02:26:23.175Z,1003.57
2018-02-07T02:27:03.568Z,1003.58
2018-02-07T02:27:44.000Z,1003.51
2018-02-07T02:28:24.447Z,1003.52
2018-02-07T02:29:04.812Z,1003.54
2018-02-07T02:29:45.200Z,1003.53
2018-02-07T02:30:25.638Z,1003.5
2018-02-07T02:31:05.999Z,1003.49
2018-02-07T02:31:46.355Z,1003.51
2018-02-07T02:32:26.815Z,1003.54
2018-02-07T02:33:07.180Z,1003.54
2018-02-07T02:33:47.618Z,1003.52
2018-02-07T02:34:27.986Z,1003.54
2018-02-07T02:35:08.397Z,1003.51
2018-02-07T02:35:48.850Z,1003.52
2018-02-07T02:36:29.145Z,1003.47
2018-02-07T02:37:09.573Z,1003.52
2018-02-07T02:37:49.988Z,1003.48
2018-02-07T02:38:30.437Z,1003.49
2018-02-07T02:39:10.781Z,1003.47
2018-02-07T02:39:51.226Z,1003.46
2018-02-07T02:40:31.579Z,1003.49
2018-02-07T02:41:11.944Z,1003.43
2018-02-07T02:41:52.401Z,1003.48
2018-02-07T02:42:32.824Z,1003.45
2018-02-07T02:43:13.233Z,1003.44
2018-02-07T02:43:53.621Z,1003.47
2018-02-07T02:44:34.015Z,1003.41
2018-02-07T02:45:14.434Z,1003.44
2018-02-07T02:45:54.832Z,1003.43
2018-02-07T02:46:35.222Z,1003.39
2018-02-07T02:47:15.600Z,1003.42
2018-02-07T02:47:55.995Z,1003.46
2018-02-07T02:48:36.418Z,1003.43
2018-02-07T02:49:16.781Z,1003.45
2018-02-07T02:49:57.141Z,1003.46
2018-02-07T02:50:37.565Z,1003.48
2018-02-07T02:51:17.912Z,1003.43
2018-02-07T02:51:58.379Z,1003.48
2018-02-07T02:52:38.737Z,1003.45
2018-02-07T02:53:19.141Z,1003.53
2018-02-07T02:53:59.549Z,1003.51
2018-02-07T02:54:39.891Z,1003.54
2018-02-07T02:55:20.384Z,1003.51
2018-02-07T02:56:00.731Z,1003.55
2018-02-07T02:56:41.116Z,1003.55
2018-02-07T02:57:21.476Z,1003.58
2018-02-07T02:58:01.935Z,1003.6
2018-02-07T02:58:42.300Z,1003.6
2018-02-07T02:59:22.724Z,1003.58
2018-02-07T03:00:03.137Z,1003.61
2018-02-07T03:00:43.539Z,1003.61
2018-02-07T03:01:23.952Z,1003.6
2018-02-07T03:02:04.385Z,1003.61
2018-02-07T03:02:44.781Z,1003.61
2018-02-07T03:03:25.127Z,1003.61
2018-02-07T03:04:05.520Z,1003.57
2018-02-07T03:04:45.962Z,1003.6
2018-02-07T03:05:26.313Z,1003.62
2018-02-07T03:06:06.714Z,1003.63
2018-02-07T03:06:47.118Z,1003.63
2018-02-07T03:07:27.481Z,1003.66
2018-02-07T03:08:07.924Z,1003.64
2018-02-07T03:08:48.304Z,1003.68
2018-02-07T03:09:28.629Z,1003.67
2018-02-07T03:10:09.130Z,1003.68
2018-02-07T03:10:49.496Z,1003.67
2018-02-07T03:11:29.877Z,1003.64
2018-02-07T03:12:10.260Z,1003.63
2018-02-07T03:12:50.661Z,1003.71
2018-02-07T03:13:31.033Z,1003.71
2018-02-07T03:14:11.354Z,1003.68
2018-02-07T03:14:51.858Z,1003.67
2018-02-07T03:15:32.266Z,1003.66
2018-02-07T03:16:12.654Z,1003.66
2018-02-07T03:16:52.973Z,1003.65
2018-02-07T03:17:33.439Z,1003.65
2018-02-07T03:18:13.823Z,1003.66
2018-02-07T03:18:54.132Z,1003.67
2018-02-07T03:19:34.545Z,1003.63
2018-02-07T03:20:15.023Z,1003.6
2018-02-07T03:20:55.402Z,1003.64
2018-02-07T03:21:35.755Z,1003.67
2018-02-07T03:22:16.209Z,1003.63
2018-02-07T03:22:56.559Z,1003.56
2018-02-07T03:23:36.896Z,1003.54
2018-02-07T03:24:17.303Z,1003.54
2018-02-07T03:24:57.707Z,1003.57
2018-02-07T03:25:38.112Z,1003.57
2018-02-07T03:26:18.511Z,1003.62
2018-02-07T03:26:58.882Z,1003.56
2018-02-07T03:27:39.282Z,1003.57
2018-02-07T03:28:19.687Z,1003.56
2018-02-07T03:29:00.125Z,1003.58
2018-02-07T03:29:40.454Z,1003.57
2018-02-07T03:30:20.882Z,1003.59
2018-02-07T03:31:01.340Z,1003.59
2018-02-07T03:31:41.734Z,1003.61
2018-02-07T03:32:22.173Z,1003.6
2018-02-07T03:33:02.592Z,1003.58
2018-02-07T03:33:42.926Z,1003.57
2018-02-07T03:34:23.336Z,1003.56
2018-02-07T03:35:03.782Z,1003.58
2018-02-07T03:35:44.073Z,1003.59
2018-02-07T03:36:24.514Z,1003.57
2018-02-07T03:37:04.868Z,1003.57
2018-02-07T03:37:45.337Z,1003.62
2018-02-07T03:38:25.742Z,1003.54
2018-02-07T03:39:06.059Z,1003.57
2018-02-07T03:39:46.529Z,1003.53
2018-02-07T03:40:26.910Z,1003.56
2018-02-07T03:41:07.366Z,1003.54
2018-02-07T03:41:47.699Z,1003.55
2018-02-07T03:42:28.126Z,1003.56
2018-02-07T03:43:08.543Z,1003.59
2018-02-07T03:43:48.930Z,1003.55
2018-02-07T03:44:29.294Z,1003.56
2018-02-07T03:45:09.699Z,1003.57
2018-02-07T03:45:50.121Z,1003.59
2018-02-07T03:46:30.499Z,1003.56
2018-02-07T03:47:10.915Z,1003.61
2018-02-07T03:47:51.240Z,1003.61
2018-02-07T03:48:31.667Z,1003.62
2018-02-07T03:49:12.028Z,1003.64
2018-02-07T03:49:52.450Z,1003.66
2018-02-07T03:50:32.798Z,1003.61
2018-02-07T03:51:13.211Z,1003.67
2018-02-07T03:51:53.678Z,1003.66
2018-02-07T03:52:34.035Z,1003.67
2018-02-07T03:53:14.418Z,1003.7
2018-02-07T03:53:54.804Z,1003.69
2018-02-07T03:54:35.159Z,1003.69
2018-02-07T03:55:15.639Z,1003.7
2018-02-07T03:55:56.081Z,1003.77
2018-02-07T03:56:36.439Z,1003.8
2018-02-07T03:57:16.798Z,1003.77
2018-02-07T03:57:57.182Z,1003.74
2018-02-07T03:58:37.581Z,1003.73
2018-02-07T03:59:18.020Z,1003.77
2018-02-07T03:59:58.462Z,1003.77
2018-02-07T04:00:38.832Z,1003.77
2018-02-07T04:01:19.313Z,1003.75
2018-02-07T04:01:59.763Z,1003.74
2018-02-07T04:02:40.114Z,1003.75
2018-02-07T04:42:48.306Z,1003.72
2018-02-07T04:43:28.730Z,1003.77
2018-02-07T04:44:09.093Z,1003.78
2018-02-07T04:44:49.466Z,1003.79
2018-02-07T04:45:29.839Z,1003.8
2018-02-07T04:47:24.369Z,1003.78
2018-02-07T04:48:04.746Z,1003.84
2018-02-07T04:48:45.166Z,1003.78
2018-02-07T04:49:25.508Z,1003.78
2018-02-07T04:50:05.917Z,1003.82
2018-02-07T04:50:46.317Z,1003.81
2018-02-07T04:51:26.696Z,1003.85
2018-02-07T04:53:24.487Z,1003.87
2018-02-07T04:54:04.615Z,1003.88
2018-02-07T04:54:45.015Z,1003.86
2018-02-07T04:55:25.405Z,1003.88
2018-02-07T04:56:05.829Z,1003.87
2018-02-07T04:56:46.198Z,1003.86
2018-02-07T04:57:26.605Z,1003.9
2018-02-07T05:01:07.241Z,1003.91
2018-02-07T05:01:50.010Z,1003.87
2018-02-07T05:05:38.943Z,1003.89
2018-02-07T05:06:21.340Z,1003.93
2018-02-07T05:07:01.767Z,1003.89
2018-02-07T05:07:42.076Z,1003.88
2018-02-07T05:08:22.473Z,1003.93
2018-02-07T05:09:02.900Z,1003.92
2018-02-07T05:09:43.239Z,1003.94
2018-02-07T05:10:23.636Z,1003.95
2018-02-07T05:11:04.016Z,1003.95
2018-02-07T05:11:44.402Z,1003.93
2018-02-07T05:12:24.802Z,1003.95
2018-02-07T05:13:05.213Z,1003.93
2018-02-07T05:13:45.659Z,1003.92
2018-02-07T05:14:26.055Z,1003.95
2018-02-07T05:15:06.466Z,1003.95
2018-02-07T05:15:46.914Z,1003.95
2018-02-07T05:16:27.326Z,1003.94
2018-02-07T05:17:07.710Z,1003.96
2018-02-07T05:17:48.159Z,1003.96
2018-02-07T05:18:28.561Z,1003.95
2018-02-07T05:19:09.010Z,1003.95
2018-02-07T05:19:49.354Z,1003.95
2018-02-07T05:20:29.789Z,1004.01
2018-02-07T05:21:10.227Z,1004.01
2018-02-07T05:21:50.612Z,1003.96
2018-02-07T05:22:30.981Z,1004
2018-02-07T05:23:11.364Z,1003.98
2018-02-07T05:23:51.801Z,1003.97
2018-02-07T05:24:32.191Z,1003.98
2018-02-07T05:25:12.593Z,1004.01
2018-02-07T05:25:53.037Z,1004.02
2018-02-07T05:26:33.430Z,1004.03
2018-02-07T05:27:13.822Z,1004.02
2018-02-07T05:27:54.234Z,1004.05
2018-02-07T05:28:34.592Z,1004.05
2018-02-07T05:29:15.042Z,1004.05
2018-02-07T05:31:36.317Z,1004.04
2018-02-07T05:32:16.616Z,1004.03
2018-02-07T05:32:56.997Z,1004.03
2018-02-07T05:33:37.394Z,1004
2018-02-07T05:34:17.802Z,1003.98
2018-02-07T05:34:58.212Z,1003.99
2018-02-07T05:35:38.573Z,1004.02
2018-02-07T05:36:19.046Z,1003.99
2018-02-07T05:36:59.398Z,1004.02
2018-02-07T05:37:39.801Z,1003.98
2018-02-07T05:38:20.136Z,1004.08
2018-02-07T05:39:00.539Z,1004.02
2018-02-07T05:39:40.961Z,1004.05
2018-02-07T05:40:21.340Z,1004.04
2018-02-07T05:41:01.822Z,1004.05
2018-02-07T05:41:42.175Z,1004.09
2018-02-07T05:42:22.589Z,1004.08
2018-02-07T05:43:02.975Z,1004.08
2018-02-07T05:43:43.333Z,1004.05
2018-02-07T05:44:23.721Z,1004.05
2018-02-07T05:45:04.098Z,1004.1
2018-02-07T05:45:44.512Z,1004.08
2018-02-07T05:46:24.951Z,1004.08
2018-02-07T05:47:05.410Z,1004.08
2018-02-07T05:47:45.764Z,1004.05
2018-02-07T05:48:26.206Z,1004.06
2018-02-07T05:49:06.552Z,1004.07
2018-02-07T05:49:47.012Z,1004.07
2018-02-07T05:50:27.440Z,1004.07
2018-02-07T05:51:07.856Z,1004.03
2018-02-07T05:51:48.381Z,1004.08
2018-02-07T05:52:28.843Z,1004.03
2018-02-07T05:53:09.299Z,1004.07
2018-02-07T05:53:49.657Z,1004.07
2018-02-07T05:54:30.115Z,1004.07
2018-02-07T05:55:10.521Z,1004.06
2018-02-07T05:55:50.955Z,1004.05
2018-02-07T05:56:31.362Z,1004.07
2018-02-07T05:57:11.724Z,1004.04
2018-02-07T05:57:52.122Z,1004.09
2018-02-07T05:58:32.569Z,1004.08
2018-02-07T05:59:12.919Z,1004.07
2018-02-07T05:59:53.319Z,1004.06
2018-02-07T06:00:33.741Z,1004.1
2018-02-07T06:01:14.154Z,1004.08
2018-02-07T06:01:54.538Z,1004.12
2018-02-07T06:02:35.609Z,1004.09
2018-02-07T06:03:16.015Z,1004.14
2018-02-07T06:05:38.930Z,1004.16
2018-02-07T06:06:24.724Z,1004.16
2018-02-07T06:07:12.772Z,1004.16
2018-02-07T06:07:56.525Z,1004.16
2018-02-07T06:08:36.945Z,1004.15
2018-02-07T06:09:17.302Z,1004.14
2018-02-07T06:09:57.706Z,1004.13
2018-02-07T06:10:38.156Z,1004.13
2018-02-07T06:11:18.536Z,1004.12
2018-02-07T06:11:58.937Z,1004.15
2018-02-07T06:14:01.390Z,1004.15
2018-02-07T06:14:47.975Z,1004.2
2018-02-07T06:15:27.165Z,1004.22
2018-02-07T06:16:07.658Z,1004.21
2018-02-07T06:16:47.977Z,1004.26
2018-02-07T06:17:28.653Z,1004.21
2018-02-07T06:21:36.311Z,1004.22
2018-02-07T06:22:22.278Z,1004.21
2018-02-07T06:23:01.202Z,1004.22
2018-02-07T06:23:41.603Z,1004.23
2018-02-07T06:24:22.048Z,1004.24
2018-02-07T06:25:02.406Z,1004.23
2018-02-07T06:25:43.109Z,1004.26
2018-02-07T06:26:23.743Z,1004.27
2018-02-07T06:27:04.090Z,1004.27
2018-02-07T06:27:44.518Z,1004.27
2018-02-07T06:28:24.976Z,1004.27
2018-02-07T06:29:05.395Z,1004.27
2018-02-07T06:29:45.840Z,1004.22
2018-02-07T06:30:26.216Z,1004.27
2018-02-07T06:31:06.541Z,1004.18
2018-02-07T06:31:46.943Z,1004.22
2018-02-07T06:34:07.939Z,1004.19
2018-02-07T06:34:53.269Z,1004.23
2018-02-07T06:35:36.347Z,1004.23
2018-02-07T06:36:17.464Z,1004.22
2018-02-07T06:36:57.879Z,1004.25
2018-02-07T06:40:20.595Z,1004.3
2018-02-07T06:41:02.388Z,1004.27
2018-02-07T06:41:42.875Z,1004.3
2018-02-07T06:42:23.319Z,1004.34
2018-02-07T06:43:03.729Z,1004.36
2018-02-07T06:43:44.208Z,1004.36
2018-02-07T06:44:24.615Z,1004.34
2018-02-07T06:45:04.996Z,1004.35
2018-02-07T06:45:45.361Z,1004.34
2018-02-07T06:46:25.797Z,1004.4
2018-02-07T06:47:06.221Z,1004.41
2018-02-07T06:47:46.693Z,1004.43
2018-02-07T06:48:27.009Z,1004.41
2018-02-07T06:49:07.429Z,1004.42
2018-02-07T06:49:47.761Z,1004.44
2018-02-07T06:50:28.162Z,1004.43
2018-02-07T06:51:08.541Z,1004.43
2018-02-07T06:51:48.951Z,1004.41
2018-02-07T06:52:29.647Z,1004.39
2018-02-07T06:53:09.954Z,1004.45
2018-02-07T06:53:50.416Z,1004.42
2018-02-07T06:54:30.877Z,1004.42
2018-02-07T06:55:11.269Z,1004.41
2018-02-07T06:55:51.641Z,1004.41
2018-02-07T06:56:33.675Z,1004.46
2018-02-07T06:57:13.226Z,1004.42
2018-02-07T06:57:53.693Z,1004.44
2018-02-07T06:58:34.092Z,1004.43
2018-02-07T06:59:14.481Z,1004.47
2018-02-07T06:59:54.913Z,1004.45
2018-02-07T07:00:35.374Z,1004.47
2018-02-07T07:01:15.924Z,1004.47
2018-02-07T07:01:56.573Z,1004.45
2018-02-07T07:02:39.246Z,1004.46
2018-02-07T07:03:20.439Z,1004.44
2018-02-07T07:04:00.442Z,1004.47
2018-02-07T07:04:41.046Z,1004.47
2018-02-07T07:05:21.583Z,1004.52
2018-02-07T07:06:02.111Z,1004.53
2018-02-07T07:06:42.438Z,1004.55
2018-02-07T07:07:22.874Z,1004.59
2018-02-07T07:08:03.965Z,1004.58
2018-02-07T07:08:43.819Z,1004.56
2018-02-07T07:09:24.229Z,1004.59
2018-02-07T07:10:04.747Z,1004.58
2018-02-07T07:10:45.131Z,1004.6
2018-02-07T07:11:25.613Z,1004.63
2018-02-07T07:12:06.002Z,1004.64
2018-02-07T07:12:46.415Z,1004.59
2018-02-07T07:19:37.042Z,1004.7
2018-02-07T07:29:30.601Z,1004.79
2018-02-07T07:30:20.092Z,1004.81
2018-02-07T07:31:02.439Z,1004.81
2018-02-07T07:31:42.990Z,1004.83
2018-02-07T07:32:23.372Z,1004.83
2018-02-07T07:33:03.844Z,1004.81
2018-02-07T07:33:44.173Z,1004.79
2018-02-07T07:34:24.881Z,1004.81
2018-02-07T07:35:06.453Z,1004.81
2018-02-07T07:37:03.929Z,1004.8
2018-02-07T07:37:43.118Z,1004.84
2018-02-07T07:38:24.112Z,1004.84
2018-02-07T07:39:04.784Z,1004.81
2018-02-07T07:39:45.129Z,1004.83
2018-02-07T07:40:25.521Z,1004.84
2018-02-07T07:41:05.957Z,1004.81
2018-02-07T07:41:46.342Z,1004.87
2018-02-07T07:58:54.401Z,1005
2018-02-07T08:01:30.041Z,1005.04
2018-02-07T08:04:12.531Z,1005.08
2018-02-07T08:06:10.632Z,1005.12
2018-02-07T08:07:04.278Z,1005.09
2018-02-07T08:09:23.521Z,1005.06
2018-02-07T08:10:18.856Z,1005.09
2018-02-07T08:11:12.813Z,1005.12
2018-02-07T08:12:18.176Z,1005.09
2018-02-07T08:13:11.303Z,1005.11
2018-02-07T08:13:59.611Z,1005.13
2018-02-07T08:14:43.058Z,1005.12
2018-02-07T08:15:23.362Z,1005.16
2018-02-07T08:16:03.853Z,1005.17
2018-02-07T08:16:44.301Z,1005.14
2018-02-07T08:17:25.002Z,1005.17
2018-02-07T08:18:05.405Z,1005.17
2018-02-07T08:18:45.987Z,1005.2
2018-02-07T08:19:26.410Z,1005.22
2018-02-07T08:20:06.841Z,1005.23
2018-02-07T08:20:47.554Z,1005.18
2018-02-07T08:21:46.605Z,1005.26
2018-02-07T08:25:30.894Z,1005.29
2018-02-07T08:27:29.273Z,1005.28
2018-02-07T08:28:22.143Z,1005.32
2018-02-07T08:31:04.110Z,1005.39
2018-02-07T08:32:16.162Z,1005.43
2018-02-07T08:33:08.836Z,1005.4
2018-02-07T08:34:30.244Z,1005.4
2018-02-07T08:39:02.728Z,1005.29
2018-02-07T08:48:21.119Z,1005.41
2018-02-07T08:50:25.357Z,1005.33
2018-02-07T08:52:37.838Z,1005.41
2018-02-07T08:53:43.299Z,1005.45
2018-02-07T08:54:48.444Z,1005.49
2018-02-07T08:55:51.375Z,1005.5
2018-02-07T09:00:33.549Z,1005.58
2018-02-07T09:02:26.910Z,1005.59
2018-02-07T09:04:27.802Z,1005.63
2018-02-07T09:06:35.931Z,1005.63
2018-02-07T09:07:29.031Z,1005.65
2018-02-07T09:11:13.180Z,1005.7
2018-02-07T09:12:08.331Z,1005.71
2018-02-07T09:13:14.638Z,1005.72
2018-02-07T09:14:09.325Z,1005.81
2018-02-07T09:22:02.620Z,1006.01
2018-02-07T09:26:34.891Z,1006.15
2018-02-07T09:28:33.052Z,1006.13
2018-02-07T09:35:11.721Z,1005.97
2018-02-07T09:37:18.651Z,1006.04
2018-02-07T09:40:26.292Z,1006.06
2018-02-07T09:42:33.618Z,1006.1
2018-02-07T09:43:16.069Z,1006.11
2018-02-07T09:43:56.619Z,1006.08
2018-02-07T09:44:36.966Z,1006.06
2018-02-07T09:45:17.547Z,1006.13
2018-02-07T09:45:57.999Z,1006.08
2018-02-07T09:46:38.993Z,1006.11
2018-02-07T09:48:21.944Z,1006.14
2018-02-07T09:49:02.582Z,1006.19
2018-02-07T09:49:42.851Z,1006.22
2018-02-07T09:50:23.316Z,1006.25
2018-02-07T09:51:04.893Z,1006.18
2018-02-07T09:51:46.209Z,1006.18
2018-02-07T09:52:26.077Z,1006.21
2018-02-07T09:53:06.580Z,1006.2
2018-02-07T09:53:47.937Z,1006.23
2018-02-07T09:54:28.665Z,1006.21
2018-02-07T09:55:08.895Z,1006.24
2018-02-07T09:55:50.371Z,1006.23
2018-02-07T09:56:30.245Z,1006.24
2018-02-07T09:57:10.729Z,1006.22
2018-02-07T09:57:52.171Z,1006.22
2018-02-07T09:58:31.879Z,1006.28
2018-02-07T09:59:12.818Z,1006.28
2018-02-07T09:59:53.449Z,1006.29
2018-02-07T10:00:34.063Z,1006.28
2018-02-07T10:01:15.373Z,1006.24
2018-02-07T10:01:55.900Z,1006.24
2018-02-07T10:02:36.509Z,1006.26
2018-02-07T10:03:18.824Z,1006.24
2018-02-07T10:03:59.640Z,1006.22
2018-02-07T10:45:06.734Z,1006.58
2018-02-07T10:45:48.827Z,1006.58
2018-02-07T10:46:29.354Z,1006.58
2018-02-07T10:47:09.633Z,1006.59
2018-02-07T10:47:50.106Z,1006.59
2018-02-07T10:48:30.569Z,1006.6
2018-02-07T10:50:44.526Z,1006.64
2018-02-07T10:51:26.584Z,1006.62
2018-02-07T10:52:06.930Z,1006.64
2018-02-07T10:52:47.381Z,1006.65
2018-02-07T10:53:27.815Z,1006.62
2018-02-07T10:54:08.230Z,1006.69
2018-02-07T10:54:48.834Z,1006.72
2018-02-07T10:55:29.301Z,1006.72
2018-02-07T10:56:09.899Z,1006.7
2018-02-07T10:56:50.507Z,1006.75
2018-02-07T10:57:31.173Z,1006.72
2018-02-07T10:58:12.444Z,1006.69
2018-02-07T10:58:52.999Z,1006.7
2018-02-07T10:59:33.462Z,1006.72
2018-02-07T11:00:13.923Z,1006.73
2018-02-07T11:00:54.417Z,1006.8
2018-02-07T11:01:34.983Z,1006.79
2018-02-07T11:02:20.193Z,1006.74
2018-02-07T11:03:08.065Z,1006.76
2018-02-07T11:07:43.380Z,1006.72
2018-02-07T11:08:39.732Z,1006.69
2018-02-07T11:15:50.605Z,1006.76
2018-02-07T11:19:07.907Z,1006.82
2018-02-07T11:19:50.040Z,1006.84
2018-02-07T11:20:30.621Z,1006.84
2018-02-07T11:21:11.513Z,1006.84
2018-02-07T11:21:52.207Z,1006.86
2018-02-07T11:22:33.984Z,1006.85
2018-02-07T11:23:14.886Z,1006.85
2018-02-07T11:28:17.866Z,1006.8
2018-02-07T11:28:58.506Z,1006.79
2018-02-07T11:29:38.933Z,1006.8
2018-02-07T11:30:19.291Z,1006.8
2018-02-07T11:30:59.703Z,1006.78
2018-02-07T11:31:40.091Z,1006.8
2018-02-07T11:32:20.542Z,1006.81
2018-02-07T11:33:00.942Z,1006.78
2018-02-07T11:33:41.389Z,1006.81
2018-02-07T11:34:21.819Z,1006.79
2018-02-07T11:35:02.187Z,1006.77
2018-02-07T11:35:42.525Z,1006.77
2018-02-07T11:36:22.999Z,1006.78
2018-02-07T11:37:03.554Z,1006.76
2018-02-07T11:37:44.116Z,1006.73
2018-02-07T11:40:23.948Z,1006.71
2018-02-07T11:46:47.637Z,1006.87
2018-02-07T11:47:26.295Z,1006.85
2018-02-07T11:48:06.787Z,1006.86
2018-02-07T11:48:47.184Z,1006.86
2018-02-07T11:49:27.674Z,1006.84
2018-02-07T11:50:08.049Z,1006.83
2018-02-07T11:50:48.434Z,1006.8
2018-02-07T11:51:28.876Z,1006.8
2018-02-07T11:52:09.587Z,1006.81
2018-02-07T11:52:52.024Z,1006.83
2018-02-07T11:53:32.526Z,1006.78
2018-02-07T11:54:21.979Z,1006.77
2018-02-07T11:55:02.396Z,1006.79
2018-02-07T11:55:42.786Z,1006.77
2018-02-07T11:56:23.198Z,1006.77
2018-02-07T11:57:03.577Z,1006.76
2018-02-07T11:57:43.983Z,1006.74
2018-02-07T11:58:24.405Z,1006.72
2018-02-07T11:59:04.862Z,1006.76
2018-02-07T11:59:45.228Z,1006.71
2018-02-07T12:00:25.588Z,1006.74
2018-02-07T12:01:06.005Z,1006.71
2018-02-07T12:01:46.404Z,1006.66
2018-02-07T12:02:26.715Z,1006.71
2018-02-07T12:04:54.219Z,1006.73